EPKK/KRK METAR and TAF weather

Enter ICAO airport designator
Station Type Date Time Source
EPKK METAR 2019/10/20 20:00 UTC NOAA

EPKK 202000Z 05005KT 360V060 CAVOK 12/11 Q1016


Station Type Date Time Source
EPKK Decoded METAR 2019/10/20 20:00 UTC NOAA

Krakow, Poland (EPKK) 50-05N 019-48E 237M
Oct 20, 2019 - 04:00 PM EDT / 2019.10.20 2000 UTC
Wind: from the NE (050 degrees) at 6 MPH (5 KT) (direction variable):0
Visibility: greater than 7 mile(s):0
Temperature: 53 F (12 C)
Dew Point: 51 F (11 C)
Relative Humidity: 93%
Pressure (altimeter): 30.00 in. Hg (1016 hPa)
ob: EPKK 202000Z 05005KT 360V060 CAVOK 12/11 Q1016
cycle: 20

Station Type Date Time Source
EPKK TAF 2019/10/20 18:33 UTC NOAA

TAF EPKK 201730Z 2018/2118 VRB02KT CAVOK
TEMPO 2100/2106 3000 BR

Example: see airport list